sensor_id;sensor_type;location;lat;lon;timestamp;temperature;humidity
17671;DHT22;8954;48.694;8.940;2023-10-09T06:38:42;12.10;99.90
17671;DHT22;8954;48.694;8.940;2023-10-09T06:41:28;11.80;99.90
17671;DHT22;8954;48.694;8.940;2023-10-09T06:44:03;11.90;99.90
17671;DHT22;8954;48.694;8.940;2023-10-09T06:46:31;11.90;99.90
17671;DHT22;8954;48.694;8.940;2023-10-09T06:49:09;12.00;99.90
17671;DHT22;8954;48.694;8.940;2023-10-09T06:51:54;12.20;99.90
17671;DHT22;8954;48.694;8.940;2023-10-09T06:54:34;12.30;99.90
17671;DHT22;8954;48.694;8.940;2023-10-09T06:57:03;12.40;99.90
17671;DHT22;8954;48.694;8.940;2023-10-09T06:59:43;12.50;99.90
17671;DHT22;8954;48.694;8.940;2023-10-09T07:02:29;12.60;99.90
17671;DHT22;8954;48.694;8.940;2023-10-09T07:04:56;12.70;99.90
17671;DHT22;8954;48.694;8.940;2023-10-09T07:07:35;12.80;99.90
17671;DHT22;8954;48.694;8.940;2023-10-09T07:10:01;12.80;99.90
17671;DHT22;8954;48.694;8.940;2023-10-09T07:12:44;12.90;99.90
17671;DHT22;8954;48.694;8.940;2023-10-09T07:15:18;13.10;99.90
17671;DHT22;8954;48.694;8.940;2023-10-09T07:18:06;13.20;99.90
17671;DHT22;8954;48.694;8.940;2023-10-09T07:20:44;13.30;99.90
17671;DHT22;8954;48.694;8.940;2023-10-09T07:23:25;13.50;99.90
17671;DHT22;8954;48.694;8.940;2023-10-09T07:26:01;13.60;99.90
17671;DHT22;8954;48.694;8.940;2023-10-09T07:28:42;13.80;99.90
17671;DHT22;8954;48.694;8.940;2023-10-09T07:31:16;14.00;99.90
17671;DHT22;8954;48.694;8.940;2023-10-09T07:33:50;14.10;99.90
17671;DHT22;8954;48.694;8.940;2023-10-09T07:36:22;14.30;99.90
17671;DHT22;8954;48.694;8.940;2023-10-09T07:39:03;14.50;99.90
17671;DHT22;8954;48.694;8.940;2023-10-09T07:41:40;14.60;99.90
17671;DHT22;8954;48.694;8.940;2023-10-09T07:44:20;14.70;99.90
17671;DHT22;8954;48.694;8.940;2023-10-09T07:47:02;14.90;99.90
17671;DHT22;8954;48.694;8.940;2023-10-09T07:49:45;15.00;99.90
17671;DHT22;8954;48.694;8.940;2023-10-09T07:52:17;15.10;99.90
17671;DHT22;8954;48.694;8.940;2023-10-09T07:54:43;15.30;99.90
17671;DHT22;8954;48.694;8.940;2023-10-09T07:57:16;15.40;99.90
17671;DHT22;8954;48.694;8.940;2023-10-09T07:59:43;15.50;99.90
17671;DHT22;8954;48.694;8.940;2023-10-09T08:02:20;15.60;99.90
17671;DHT22;8954;48.694;8.940;2023-10-09T08:04:57;15.90;99.90
17671;DHT22;8954;48.694;8.940;2023-10-09T08:07:29;16.10;99.90
17671;DHT22;8954;48.694;8.940;2023-10-09T08:10:07;16.20;99.90
17671;DHT22;8954;48.694;8.940;2023-10-09T08:16:01;16.40;99.90
17671;DHT22;8954;48.694;8.940;2023-10-09T08:21:51;16.80;99.90
17671;DHT22;8954;48.694;8.940;2023-10-09T08:27:59;17.10;99.90
17671;DHT22;8954;48.694;8.940;2023-10-09T08:30:44;17.50;99.90
17671;DHT22;8954;48.694;8.940;2023-10-09T08:33:16;17.70;99.90
17671;DHT22;8954;48.694;8.940;2023-10-09T08:35:50;17.90;99.90
17671;DHT22;8954;48.694;8.940;2023-10-09T08:38:17;18.10;99.90
17671;DHT22;8954;48.694;8.940;2023-10-09T08:40:52;18.30;99.90
17671;DHT22;8954;48.694;8.940;2023-10-09T08:43:23;18.50;99.90
17671;DHT22;8954;48.694;8.940;2023-10-09T08:48:19;18.80;99.90
17671;DHT22;8954;48.694;8.940;2023-10-09T08:50:48;18.80;99.90
17671;DHT22;8954;48.694;8.940;2023-10-09T08:53:20;18.80;99.90
17671;DHT22;8954;48.694;8.940;2023-10-09T08:55:45;18.90;99.90
17671;DHT22;8954;48.694;8.940;2023-10-09T08:58:15;19.10;99.90
17671;DHT22;8954;48.694;8.940;2023-10-09T09:00:46;19.20;99.90
17671;DHT22;8954;48.694;8.940;2023-10-09T09:03:14;19.20;99.90
17671;DHT22;8954;48.694;8.940;2023-10-09T09:05:48;19.20;99.90
17671;DHT22;8954;48.694;8.940;2023-10-09T09:08:25;19.00;99.90
17671;DHT22;8954;48.694;8.940;2023-10-09T09:11:04;19.20;99.90
17671;DHT22;8954;48.694;8.940;2023-10-09T09:14:03;19.30;99.90
17671;DHT22;8954;48.694;8.940;2023-10-09T09:16:40;19.50;99.90
17671;DHT22;8954;48.694;8.940;2023-10-09T09:19:09;19.40;99.90
17671;DHT22;8954;48.694;8.940;2023-10-09T09:21:37;19.40;99.90
17671;DHT22;8954;48.694;8.940;2023-10-09T09:24:07;19.50;99.90
17671;DHT22;8954;48.694;8.940;2023-10-09T09:26:49;19.60;99.90
17671;DHT22;8954;48.694;8.940;2023-10-09T09:32:08;19.80;99.90
17671;DHT22;8954;48.694;8.940;2023-10-09T09:34:47;20.10;99.90
17671;DHT22;8954;48.694;8.940;2023-10-09T09:37:28;20.10;99.90
17671;DHT22;8954;48.694;8.940;2023-10-09T09:40:01;20.40;99.90
17671;DHT22;8954;48.694;8.940;2023-10-09T09:42:30;20.60;99.90
17671;DHT22;8954;48.694;8.940;2023-10-09T09:47:25;21.40;99.90
17671;DHT22;8954;48.694;8.940;2023-10-09T09:49:56;21.50;99.90
17671;DHT22;8954;48.694;8.940;2023-10-09T09:55:09;21.90;99.90
17671;DHT22;8954;48.694;8.940;2023-10-09T09:57:44;22.00;99.90
17671;DHT22;8954;48.694;8.940;2023-10-09T10:00:12;22.70;99.90
17671;DHT22;8954;48.694;8.940;2023-10-09T10:02:54;23.60;99.90
17671;DHT22;8954;48.694;8.940;2023-10-09T10:05:24;24.60;99.90
17671;DHT22;8954;48.694;8.940;2023-10-09T10:07:58;25.30;99.90
17671;DHT22;8954;48.694;8.940;2023-10-09T10:10:51;26.10;99.90
17671;DHT22;8954;48.694;8.940;2023-10-09T10:16:16;26.70;99.90
17671;DHT22;8954;48.694;8.940;2023-10-09T10:19:03;26.50;99.40
17671;DHT22;8954;48.694;8.940;2023-10-09T10:21:33;26.40;98.20
17671;DHT22;8954;48.694;8.940;2023-10-09T10:29:44;26.70;94.80
17671;DHT22;8954;48.694;8.940;2023-10-09T10:32:11;27.00;94.30
17671;DHT22;8954;48.694;8.940;2023-10-09T10:37:13;26.90;93.30
17671;DHT22;8954;48.694;8.940;2023-10-09T10:39:50;26.90;93.00
17671;DHT22;8954;48.694;8.940;2023-10-09T10:42:15;27.00;92.80
17671;DHT22;8954;48.694;8.940;2023-10-09T10:45:02;27.10;92.00
17671;DHT22;8954;48.694;8.940;2023-10-09T10:47:28;27.10;92.00
17671;DHT22;8954;48.694;8.940;2023-10-09T10:50:01;27.00;92.30
17671;DHT22;8954;48.694;8.940;2023-10-09T10:52:45;27.00;93.10
17671;DHT22;8954;48.694;8.940;2023-10-09T10:55:23;27.30;91.30
17671;DHT22;8954;48.694;8.940;2023-10-09T10:58:01;27.60;90.10
17671;DHT22;8954;48.694;8.940;2023-10-09T11:00:28;27.20;90.40
17671;DHT22;8954;48.694;8.940;2023-10-09T11:03:19;26.90;90.10
17671;DHT22;8954;48.694;8.940;2023-10-09T11:05:49;26.90;91.10
17671;DHT22;8954;48.694;8.940;2023-10-09T11:08:19;27.00;91.60
17671;DHT22;8954;48.694;8.940;2023-10-09T11:10:50;27.00;90.60
17671;DHT22;8954;48.694;8.940;2023-10-09T11:13:25;26.90;91.20
17671;DHT22;8954;48.694;8.940;2023-10-09T11:16:00;26.80;90.60
17671;DHT22;8954;48.694;8.940;2023-10-09T11:18:41;26.70;88.50
17671;DHT22;8954;48.694;8.940;2023-10-09T11:21:13;26.80;87.60
17671;DHT22;8954;48.694;8.940;2023-10-09T11:23:41;27.10;88.70
17671;DHT22;8954;48.694;8.940;2023-10-09T11:26:24;27.20;84.00
17671;DHT22;8954;48.694;8.940;2023-10-09T11:29:13;27.00;76.20
17671;DHT22;8954;48.694;8.940;2023-10-09T11:32:19;26.80;74.60
17671;DHT22;8954;48.694;8.940;2023-10-09T11:35:08;26.60;76.50
17671;DHT22;8954;48.694;8.940;2023-10-09T11:37:35;26.50;77.10
17671;DHT22;8954;48.694;8.940;2023-10-09T11:40:31;26.30;80.00
17671;DHT22;8954;48.694;8.940;2023-10-09T11:43:19;26.20;79.30
17671;DHT22;8954;48.694;8.940;2023-10-09T11:46:11;25.90;77.80
17671;DHT22;8954;48.694;8.940;2023-10-09T11:48:36;25.40;73.20
17671;DHT22;8954;48.694;8.940;2023-10-09T11:51:22;25.10;74.30
17671;DHT22;8954;48.694;8.940;2023-10-09T11:53:47;24.80;72.40
17671;DHT22;8954;48.694;8.940;2023-10-09T11:56:21;24.70;72.90
17671;DHT22;8954;48.694;8.940;2023-10-09T11:58:48;24.20;74.50
17671;DHT22;8954;48.694;8.940;2023-10-09T12:01:16;23.90;74.00
17671;DHT22;8954;48.694;8.940;2023-10-09T12:03:43;23.70;75.00
17671;DHT22;8954;48.694;8.940;2023-10-09T12:06:15;23.60;76.40
17671;DHT22;8954;48.694;8.940;2023-10-09T12:08:44;23.40;76.50
17671;DHT22;8954;48.694;8.940;2023-10-09T12:11:12;23.30;76.20
17671;DHT22;8954;48.694;8.940;2023-10-09T12:13:40;23.30;74.90
17671;DHT22;8954;48.694;8.940;2023-10-09T12:16:08;23.30;74.40
17671;DHT22;8954;48.694;8.940;2023-10-09T12:18:35;23.50;73.80
17671;DHT22;8954;48.694;8.940;2023-10-09T12:27:45;24.30;70.00
17671;DHT22;8954;48.694;8.940;2023-10-09T12:30:11;24.80;68.00
17671;DHT22;8954;48.694;8.940;2023-10-09T12:32:37;25.20;68.80
17671;DHT22;8954;48.694;8.940;2023-10-09T12:35:02;25.80;70.50
17671;DHT22;8954;48.694;8.940;2023-10-09T12:37:28;26.20;67.60
17671;DHT22;8954;48.694;8.940;2023-10-09T12:39:56;26.90;68.00
17671;DHT22;8954;48.694;8.940;2023-10-09T12:42:22;27.50;66.30
17671;DHT22;8954;48.694;8.940;2023-10-09T12:44:48;28.10;66.00
17671;DHT22;8954;48.694;8.940;2023-10-09T12:47:14;28.90;66.50
17671;DHT22;8954;48.694;8.940;2023-10-09T12:49:39;30.30;60.00
17671;DHT22;8954;48.694;8.940;2023-10-09T12:52:07;31.50;58.60
17671;DHT22;8954;48.694;8.940;2023-10-09T12:57:11;33.50;56.10
17671;DHT22;8954;48.694;8.940;2023-10-09T12:59:42;36.10;51.20
17671;DHT22;8954;48.694;8.940;2023-10-09T13:02:14;36.50;47.40
17671;DHT22;8954;48.694;8.940;2023-10-09T13:04:54;36.40;49.40
17671;DHT22;8954;48.694;8.940;2023-10-09T13:07:20;37.20;48.40
17671;DHT22;8954;48.694;8.940;2023-10-09T13:09:48;36.40;47.60
17671;DHT22;8954;48.694;8.940;2023-10-09T13:12:34;35.60;48.60
17671;DHT22;8954;48.694;8.940;2023-10-09T13:14:59;35.60;47.60
17671;DHT22;8954;48.694;8.940;2023-10-09T13:17:25;36.50;47.80
17671;DHT22;8954;48.694;8.940;2023-10-09T13:19:52;36.90;48.00
17671;DHT22;8954;48.694;8.940;2023-10-09T13:22:18;37.30;45.60
17671;DHT22;8954;48.694;8.940;2023-10-09T13:24:43;38.10;44.10
17671;DHT22;8954;48.694;8.940;2023-10-09T13:27:13;39.00;43.50
17671;DHT22;8954;48.694;8.940;2023-10-09T13:29:46;38.30;43.70
17671;DHT22;8954;48.694;8.940;2023-10-09T13:32:14;37.50;45.40
17671;DHT22;8954;48.694;8.940;2023-10-09T13:34:40;37.80;42.60
17671;DHT22;8954;48.694;8.940;2023-10-09T13:37:11;38.30;42.00
17671;DHT22;8954;48.694;8.940;2023-10-09T13:39:40;36.90;43.10
17671;DHT22;8954;48.694;8.940;2023-10-09T13:42:17;35.30;44.10
17671;DHT22;8954;48.694;8.940;2023-10-09T13:44:42;35.10;45.40
17671;DHT22;8954;48.694;8.940;2023-10-09T13:47:08;35.60;44.20
17671;DHT22;8954;48.694;8.940;2023-10-09T13:49:47;36.60;41.90
17671;DHT22;8954;48.694;8.940;2023-10-09T13:52:17;37.20;43.80
17671;DHT22;8954;48.694;8.940;2023-10-09T13:54:47;37.70;41.70
17671;DHT22;8954;48.694;8.940;2023-10-09T13:57:14;38.00;40.90
17671;DHT22;8954;48.694;8.940;2023-10-09T13:59:41;38.30;41.30
17671;DHT22;8954;48.694;8.940;2023-10-09T14:02:15;37.60;41.20
17671;DHT22;8954;48.694;8.940;2023-10-09T14:04:45;38.60;41.00
17671;DHT22;8954;48.694;8.940;2023-10-09T14:07:11;38.80;39.90
17671;DHT22;8954;48.694;8.940;2023-10-09T14:09:42;38.60;40.40
17671;DHT22;8954;48.694;8.940;2023-10-09T14:12:21;38.40;39.50
17671;DHT22;8954;48.694;8.940;2023-10-09T14:14:47;35.90;40.90
17671;DHT22;8954;48.694;8.940;2023-10-09T14:17:14;33.70;42.40
17671;DHT22;8954;48.694;8.940;2023-10-09T14:19:46;32.50;45.10
17671;DHT22;8954;48.694;8.940;2023-10-09T14:22:21;31.30;45.40
17671;DHT22;8954;48.694;8.940;2023-10-09T14:24:49;30.40;45.60
17671;DHT22;8954;48.694;8.940;2023-10-09T14:27:21;29.70;47.00
17671;DHT22;8954;48.694;8.940;2023-10-09T14:29:49;29.10;47.30
17671;DHT22;8954;48.694;8.940;2023-10-09T14:32:16;28.90;48.10
17671;DHT22;8954;48.694;8.940;2023-10-09T14:34:44;29.00;48.40
17671;DHT22;8954;48.694;8.940;2023-10-09T14:37:16;28.90;49.40
17671;DHT22;8954;48.694;8.940;2023-10-09T14:39:43;28.90;48.40
17671;DHT22;8954;48.694;8.940;2023-10-09T14:42:14;28.90;48.70
17671;DHT22;8954;48.694;8.940;2023-10-09T14:44:41;28.60;48.90
17671;DHT22;8954;48.694;8.940;2023-10-09T14:47:07;28.20;49.90
17671;DHT22;8954;48.694;8.940;2023-10-09T14:49:36;28.10;49.90
17671;DHT22;8954;48.694;8.940;2023-10-09T14:52:05;28.00;50.90
17671;DHT22;8954;48.694;8.940;2023-10-09T14:54:34;28.00;51.50
17671;DHT22;8954;48.694;8.940;2023-10-09T14:57:00;27.90;52.20
17671;DHT22;8954;48.694;8.940;2023-10-09T14:59:26;27.90;51.90
17671;DHT22;8954;48.694;8.940;2023-10-09T15:01:51;27.90;53.00
17671;DHT22;8954;48.694;8.940;2023-10-09T15:04:19;27.60;52.70
17671;DHT22;8954;48.694;8.940;2023-10-09T15:06:45;27.50;54.10
17671;DHT22;8954;48.694;8.940;2023-10-09T15:09:15;27.30;53.80
17671;DHT22;8954;48.694;8.940;2023-10-09T15:11:54;27.20;53.70
17671;DHT22;8954;48.694;8.940;2023-10-09T15:14:20;27.20;54.00
17671;DHT22;8954;48.694;8.940;2023-10-09T15:16:46;27.00;52.40
17671;DHT22;8954;48.694;8.940;2023-10-09T15:19:12;26.90;52.60
17671;DHT22;8954;48.694;8.940;2023-10-09T15:21:39;26.60;57.10
17671;DHT22;8954;48.694;8.940;2023-10-09T15:24:11;26.50;54.80
17671;DHT22;8954;48.694;8.940;2023-10-09T15:26:44;26.30;54.00
17671;DHT22;8954;48.694;8.940;2023-10-09T15:29:20;26.10;55.70
17671;DHT22;8954;48.694;8.940;2023-10-09T15:31:51;25.90;56.80
17671;DHT22;8954;48.694;8.940;2023-10-09T15:34:17;25.60;57.30
17671;DHT22;8954;48.694;8.940;2023-10-09T15:36:44;25.40;59.30
17671;DHT22;8954;48.694;8.940;2023-10-09T15:39:12;25.30;57.50
17671;DHT22;8954;48.694;8.940;2023-10-09T15:41:38;25.00;61.70
17671;DHT22;8954;48.694;8.940;2023-10-09T15:44:05;24.70;60.90
